Time;durP1;ratioP1;P1;durP2;ratioP2;P2;SDS_P1;SDS_P2;PMS_P1;PMS_P2;Temp;Humidity;BMP_temperature;BMP_pressure;BME280_temperature;BME280_humidity;BME280_pressure;Samples;Min_cycle;Max_cycle;Signal;HPM_P1;HPM_P2
2023/09/07 00:00:15;;;;;;;10.55;7.07;;;;;;;11.79;100.00;93415.28;2521379;23;20493;-86
2023/09/07 00:01:16;;;;;;;7.63;6.28;;;;;;;11.82;100.00;93414.47;2533259;23;20037;-86
2023/09/07 00:02:17;;;;;;;10.63;6.65;;;;;;;11.79;100.00;93415.28;2509322;23;20003;-85
2023/09/07 00:03:18;;;;;;;10.52;6.97;;;;;;;11.69;100.00;93408.25;2521232;23;20002;-85
2023/09/07 00:04:21;;;;;;;7.93;6.22;;;;;;;11.70;100.00;93409.75;2521444;23;20006;-87
2023/09/07 00:05:22;;;;;;;12.18;7.28;;;;;;;11.76;100.00;93408.81;2509904;23;20010;-86
2023/09/07 00:06:23;;;;;;;12.60;7.07;;;;;;;11.81;100.00;93410.28;2521430;23;20494;-86
2023/09/07 00:07:26;;;;;;;11.15;6.95;;;;;;;11.76;100.00;93416.09;2521792;23;20009;-85
2023/09/07 00:08:27;;;;;;;10.73;6.82;;;;;;;11.72;100.00;93415.44;2522050;23;20053;-86
2023/09/07 00:09:28;;;;;;;8.70;6.55;;;;;;;11.52;100.00;93420.81;2521332;23;20010;-87
2023/09/07 00:10:29;;;;;;;9.27;6.93;;;;;;;11.57;100.00;93415.72;2509476;23;20007;-85
2023/09/07 00:11:30;;;;;;;8.85;6.47;;;;;;;11.56;100.00;93419.59;2521533;23;20028;-85
2023/09/07 00:12:31;;;;;;;11.30;6.88;;;;;;;11.58;100.00;93425.25;2521249;23;20007;-86
2023/09/07 00:13:33;;;;;;;10.60;7.05;;;;;;;11.56;100.00;93421.50;2509560;23;20062;-86
2023/09/07 00:14:34;;;;;;;7.45;6.63;;;;;;;11.58;100.00;93419.91;2510023;23;20006;-86
2023/09/07 00:15:37;;;;;;;7.50;6.65;;;;;;;11.56;100.00;93414.22;2509485;23;20002;-86
2023/09/07 00:16:38;;;;;;;10.60;7.47;;;;;;;11.56;100.00;93408.88;2521809;23;20007;-85
2023/09/07 00:17:39;;;;;;;8.07;6.63;;;;;;;11.59;100.00;93416.09;2533536;23;20006;-86
2023/09/07 00:18:40;;;;;;;10.50;7.00;;;;;;;11.60;100.00;93414.16;2533537;23;20318;-87
2023/09/07 00:19:41;;;;;;;9.05;6.80;;;;;;;11.63;100.00;93407.97;2521319;23;20002;-84
2023/09/07 00:20:42;;;;;;;11.45;7.43;;;;;;;11.58;100.00;93411.13;2521357;23;20449;-85
2023/09/07 00:21:43;;;;;;;9.25;6.53;;;;;;;11.58;100.00;93411.13;2521520;23;20504;-86
2023/09/07 00:22:44;;;;;;;8.77;7.38;;;;;;;11.57;100.00;93418.41;2521544;23;20401;-87
2023/09/07 00:23:44;;;;;;;7.03;6.32;;;;;;;11.48;100.00;93415.53;2533156;23;20437;-86
2023/09/07 00:24:46;;;;;;;9.73;7.25;;;;;;;11.44;100.00;93416.78;2545607;23;20040;-85
2023/09/07 00:25:47;;;;;;;9.13;6.75;;;;;;;11.43;100.00;93416.03;2544990;23;20357;-86
2023/09/07 00:26:48;;;;;;;11.10;7.00;;;;;;;11.44;100.00;93422.13;2521393;23;20010;-85
2023/09/07 00:27:51;;;;;;;9.38;7.03;;;;;;;11.46;100.00;93414.47;2533294;23;20009;-86
2023/09/07 00:28:51;;;;;;;10.20;6.72;;;;;;;11.45;100.00;93413.69;2521572;23;20299;-85
2023/09/07 00:29:52;;;;;;;8.48;7.28;;;;;;;11.45;100.00;93416.34;2545638;23;20009;-86
2023/09/07 00:30:53;;;;;;;8.15;7.28;;;;;;;11.45;100.00;93416.34;2533375;23;20033;-85
2023/09/07 00:31:54;;;;;;;12.20;7.35;;;;;;;11.46;100.00;93407.19;2509736;23;20010;-85
2023/09/07 00:32:55;;;;;;;9.90;7.00;;;;;;;11.38;100.00;93413.84;2509612;23;20010;-87
2023/09/07 00:33:56;;;;;;;9.02;7.63;;;;;;;11.41;100.00;93409.56;2521597;23;20006;-85
2023/09/07 00:34:57;;;;;;;8.43;6.70;;;;;;;11.38;100.00;93410.41;2533511;23;20002;-84
2023/09/07 00:35:58;;;;;;;12.63;6.78;;;;;;;11.23;100.00;93405.31;2520884;23;20006;-85
2023/09/07 00:37:00;;;;;;;8.65;7.22;;;;;;;11.31;100.00;93400.59;2545534;23;20013;-85
2023/09/07 00:38:01;;;;;;;9.98;7.03;;;;;;;11.27;100.00;93414.03;2533302;23;20330;-84
2023/09/07 00:39:03;;;;;;;9.68;7.43;;;;;;;11.32;100.00;93399.41;2509422;23;20007;-86
2023/09/07 00:40:08;;;;;;;7.72;6.47;;;;;;;11.37;100.00;93401.63;2509400;23;20034;-84
2023/09/07 00:41:09;;;;;;;9.13;7.43;;;;;;;11.38;100.00;93399.72;2523287;23;20446;-85
2023/09/07 00:42:11;;;;;;;8.45;6.93;;;;;;;11.31;100.00;93403.25;2521038;23;20085;-85
2023/09/07 00:43:12;;;;;;;10.27;7.13;;;;;;;11.30;100.00;93407.13;2521170;23;20006;-88
2023/09/07 00:44:13;;;;;;;8.30;6.93;;;;;;;11.31;100.00;93398.66;2521329;23;20081;-85
2023/09/07 00:45:15;;;;;;;10.88;6.95;;;;;;;11.28;100.00;93404.09;2509268;23;20003;-85
2023/09/07 00:46:16;;;;;;;9.15;7.22;;;;;;;11.24;100.00;93400.75;2521149;23;20014;-84
2023/09/07 00:47:18;;;;;;;9.00;6.80;;;;;;;11.23;100.00;93407.25;2521117;23;20013;-86
2023/09/07 00:48:20;;;;;;;9.57;6.68;;;;;;;11.29;100.00;93405.63;2497921;23;20502;-84
2023/09/07 00:49:21;;;;;;;9.75;6.97;;;;;;;11.18;100.00;93405.06;2497956;23;20007;-87
2023/09/07 00:50:22;;;;;;;7.65;6.75;;;;;;;11.13;100.00;93400.94;2521193;23;20028;-84
2023/09/07 00:51:23;;;;;;;9.30;7.05;;;;;;;11.15;100.00;93395.94;2521210;23;20003;-84
2023/09/07 00:52:25;;;;;;;8.60;7.13;;;;;;;11.17;100.00;93404.31;2509189;23;20042;-85
2023/09/07 00:53:27;;;;;;;10.00;7.05;;;;;;;11.15;100.00;93403.97;2509845;23;20017;-86
2023/09/07 00:54:28;;;;;;;9.65;7.43;;;;;;;11.17;100.00;93408.91;2521299;23;20020;-84
2023/09/07 00:55:37;;;;;;;9.30;6.78;;;;;;;11.16;100.00;93402.06;2509673;23;20454;-86
2023/09/07 00:56:42;;;;;;;9.27;7.38;;;;;;;11.19;100.00;93401.22;2525928;23;20082;-86
2023/09/07 00:57:43;;;;;;;8.88;6.68;;;;;;;11.07;100.00;93399.94;2533243;23;20435;-85
2023/09/07 00:58:44;;;;;;;9.40;6.82;;;;;;;11.01;100.00;93410.31;2521025;23;20011;-85
2023/09/07 00:59:45;;;;;;;7.07;6.32;;;;;;;10.98;100.00;93407.75;2497824;23;20188;-84
2023/09/07 01:00:46;;;;;;;9.23;7.20;;;;;;;10.95;100.00;93406.63;2497221;23;20007;-86
2023/09/07 01:01:48;;;;;;;8.77;7.20;;;;;;;10.94;100.00;93405.13;2497600;23;20003;-85
2023/09/07 01:02:50;;;;;;;10.25;6.93;;;;;;;10.81;100.00;93413.00;2498286;23;20030;-85
2023/09/07 01:03:51;;;;;;;7.35;6.65;;;;;;;10.90;100.00;93409.78;2497566;23;20011;-85
2023/09/07 01:04:52;;;;;;;10.68;7.30;;;;;;;10.87;100.00;93404.50;2509830;23;20336;-84
2023/09/07 01:06:03;;;;;;;10.02;6.97;;;;;;;10.90;100.00;93409.78;2520771;23;20077;-86
2023/09/07 01:07:18;;;;;;;9.98;7.05;;;;;;;10.96;100.00;93408.13;2513331;23;20011;-85
2023/09/07 01:08:25;;;;;;;10.60;7.47;;;;;;;10.88;100.00;93401.41;2511875;23;20354;-83
2023/09/07 01:09:30;;;;;;;8.27;6.93;;;;;;;10.88;100.00;93409.41;2499761;23;20082;-84
2023/09/07 01:10:32;;;;;;;10.40;7.07;;;;;;;10.86;100.00;93403.00;2522019;23;20129;-85
2023/09/07 01:11:37;;;;;;;7.15;6.45;;;;;;;10.84;100.00;93403.38;2521060;23;20006;-84
2023/09/07 01:12:40;;;;;;;9.95;6.85;;;;;;;10.71;100.00;93411.28;2509990;23;20405;-86
2023/09/07 01:13:42;;;;;;;8.93;6.82;;;;;;;10.80;100.00;93408.06;2521020;23;20030;-86
2023/09/07 01:14:43;;;;;;;10.13;6.95;;;;;;;10.85;100.00;93399.56;2497877;23;20342;-85
2023/09/07 01:15:46;;;;;;;8.93;7.40;;;;;;;10.79;100.00;93401.94;2497993;23;20014;-85
2023/09/07 01:16:56;;;;;;;9.68;7.47;;;;;;;10.83;100.00;93399.19;2509633;23;20427;-85
2023/09/07 01:17:58;;;;;;;10.32;7.10;;;;;;;10.86;100.00;93403.75;2522908;23;20074;-83
2023/09/07 01:19:01;;;;;;;11.77;7.30;;;;;;;10.82;100.00;93398.44;2509344;23;20007;-85
2023/09/07 01:20:09;;;;;;;9.80;7.22;;;;;;;10.81;100.00;93396.19;2521451;23;20010;-84
2023/09/07 01:21:11;;;;;;;8.18;7.15;;;;;;;10.73;100.00;93400.91;2522535;23;20006;-83
2023/09/07 01:22:14;;;;;;;8.85;6.85;;;;;;;10.74;100.00;93399.00;2509326;23;20078;-83
2023/09/07 01:23:15;;;;;;;8.93;7.60;;;;;;;10.75;100.00;93400.50;2509550;23;20002;-85
2023/09/07 01:24:17;;;;;;;8.85;7.18;;;;;;;10.70;100.00;93400.97;2497654;23;20003;-85
2023/09/07 01:25:19;;;;;;;11.75;7.63;;;;;;;10.77;100.00;93398.19;2521508;23;19998;-83
2023/09/07 01:26:20;;;;;;;15.48;7.57;;;;;;;10.70;100.00;93398.28;2520937;23;20013;-85
2023/09/07 01:27:21;;;;;;;8.05;7.10;;;;;;;10.71;100.00;93389.09;2509247;23;20006;-85
2023/09/07 01:28:22;;;;;;;8.63;7.40;;;;;;;10.72;100.00;93398.66;2509227;23;20423;-86
2023/09/07 01:29:23;;;;;;;8.90;7.30;;;;;;;10.65;100.00;93396.84;2509201;23;20079;-86
2023/09/07 01:30:27;;;;;;;7.78;6.95;;;;;;;10.56;100.00;93401.97;2520894;23;20398;-86
2023/09/07 01:31:28;;;;;;;8.65;7.32;;;;;;;10.62;100.00;93400.31;2498517;23;20007;-85
2023/09/07 01:32:29;;;;;;;9.02;7.18;;;;;;;10.68;100.00;93397.97;2509399;23;20002;-83
2023/09/07 01:33:30;;;;;;;9.50;6.60;;;;;;;10.67;100.00;93393.75;2509174;23;20053;-86
2023/09/07 01:34:31;;;;;;;12.43;7.57;;;;;;;10.68;100.00;93393.38;2497407;23;20003;-85
2023/09/07 01:35:34;;;;;;;11.57;7.55;;;;;;;10.59;100.00;93393.91;2520998;23;20110;-86
2023/09/07 01:36:35;;;;;;;8.55;6.90;;;;;;;10.70;100.00;93395.63;2544901;23;20013;-85
2023/09/07 01:37:45;;;;;;;12.02;7.75;;;;;;;10.67;100.00;93394.53;2532941;23;20018;-85
2023/09/07 01:38:46;;;;;;;9.40;6.97;;;;;;;10.58;100.00;93392.41;2522589;23;20010;-85
2023/09/07 01:39:48;;;;;;;9.05;7.07;;;;;;;10.59;100.00;93396.56;2533150;23;20033;-85
2023/09/07 01:40:49;;;;;;;9.63;7.25;;;;;;;10.54;100.00;93391.69;2520793;23;20534;-87
2023/09/07 01:41:50;;;;;;;9.63;6.97;;;;;;;10.56;100.00;93388.59;2509335;23;20007;-85
2023/09/07 01:42:51;;;;;;;9.95;7.45;;;;;;;10.56;100.00;93385.94;2530986;23;20010;-86
2023/09/07 01:43:52;;;;;;;9.77;7.80;;;;;;;10.57;100.00;93384.75;2520763;23;20096;-86
2023/09/07 01:44:53;;;;;;;10.63;7.68;;;;;;;10.65;100.00;93383.47;2521323;23;20046;-85
2023/09/07 01:45:54;;;;;;;10.13;7.35;;;;;;;10.67;100.00;93381.16;2520805;23;20371;-86
2023/09/07 01:46:55;;;;;;;8.82;7.25;;;;;;;10.62;100.00;93383.53;2509468;23;20007;-84
2023/09/07 01:47:58;;;;;;;8.27;6.88;;;;;;;10.55;100.00;93382.50;2509269;23;20014;-85
2023/09/07 01:48:59;;;;;;;9.38;7.28;;;;;;;10.59;100.00;93380.53;2521943;23;20365;-85
2023/09/07 01:50:00;;;;;;;9.70;6.82;;;;;;;10.59;100.00;93383.22;2533125;23;20013;-84
2023/09/07 01:51:01;;;;;;;11.00;8.13;;;;;;;10.63;100.00;93385.81;2532714;23;20009;-86
2023/09/07 01:52:02;;;;;;;11.77;7.05;;;;;;;10.65;100.00;93380.81;2521065;23;20010;-85
2023/09/07 01:53:04;;;;;;;10.82;7.43;;;;;;;10.62;100.00;93372.84;2533020;23;20012;-84
2023/09/07 01:54:05;;;;;;;8.60;7.70;;;;;;;10.53;100.00;93384.06;2545197;23;20005;-85
2023/09/07 01:55:06;;;;;;;9.52;6.95;;;;;;;10.58;100.00;93384.38;2520964;23;20017;-85
2023/09/07 01:56:07;;;;;;;9.30;7.68;;;;;;;10.51;100.00;93389.84;2508874;23;20011;-84
2023/09/07 01:57:08;;;;;;;10.63;7.45;;;;;;;10.47;100.00;93375.78;2509024;23;20482;-86
2023/09/07 01:58:09;;;;;;;9.13;6.90;;;;;;;10.45;100.00;93380.03;2520951;23;20003;-87
2023/09/07 01:59:10;;;;;;;10.52;7.45;;;;;;;10.45;100.00;93385.38;2519741;23;20010;-86
2023/09/07 02:00:12;;;;;;;10.85;7.07;;;;;;;10.44;100.00;93381.19;2519843;23;20006;-86
2023/09/07 02:01:30;;;;;;;8.98;7.20;;;;;;;10.42;100.00;93384.25;2508368;23;20014;-85
2023/09/07 02:02:32;;;;;;;10.13;6.97;;;;;;;10.33;100.00;93390.13;2515269;23;20013;-84
2023/09/07 02:03:33;;;;;;;10.25;6.65;;;;;;;10.37;100.00;93383.97;2521216;23;20114;-86
2023/09/07 02:04:34;;;;;;;8.18;7.00;;;;;;;10.38;100.00;93382.81;2508786;23;20013;-82
2023/09/07 02:05:35;;;;;;;11.80;7.18;;;;;;;10.44;100.00;93387.28;2508536;23;20003;-83
2023/09/07 02:06:36;;;;;;;13.77;6.63;;;;;;;10.39;100.00;93379.72;2508588;23;20015;-85
2023/09/07 02:07:37;;;;;;;8.68;6.90;;;;;;;10.38;100.00;93380.91;2532650;23;20001;-85
2023/09/07 02:08:38;;;;;;;9.48;7.07;;;;;;;10.33;100.00;93376.03;2533048;23;20076;-85
2023/09/07 02:09:39;;;;;;;10.40;7.40;;;;;;;10.30;100.00;93387.50;2509084;23;20002;-85
2023/09/07 02:10:40;;;;;;;11.90;7.78;;;;;;;10.44;100.00;93381.19;2532803;23;20033;-83
2023/09/07 02:11:41;;;;;;;12.80;7.28;;;;;;;10.38;100.00;93378.22;2532991;23;20051;-86
2023/09/07 02:12:42;;;;;;;9.25;7.28;;;;;;;10.42;100.00;93381.59;2509029;23;20424;-84
2023/09/07 02:13:44;;;;;;;7.70;6.85;;;;;;;10.41;100.00;93382.75;2508833;23;20003;-84
2023/09/07 02:14:45;;;;;;;11.65;6.88;;;;;;;10.41;100.00;93384.69;2509277;23;20086;-85
2023/09/07 02:15:46;;;;;;;7.18;6.47;;;;;;;10.45;100.00;93380.03;2509113;23;20003;-84
2023/09/07 02:16:47;;;;;;;14.05;7.15;;;;;;;10.38;100.00;93375.56;2520902;23;20002;-85
2023/09/07 02:17:48;;;;;;;7.32;6.40;;;;;;;10.46;100.00;93376.19;2520865;23;20051;-85
2023/09/07 02:18:50;;;;;;;10.38;6.63;;;;;;;10.48;100.00;93379.94;2521189;23;20006;-86
2023/09/07 02:19:51;;;;;;;8.38;7.32;;;;;;;10.39;100.00;93382.41;2533045;23;20066;-84
2023/09/07 02:20:52;;;;;;;7.15;6.45;;;;;;;10.46;100.00;93376.19;2509000;23;20010;-86
2023/09/07 02:21:54;;;;;;;10.18;6.78;;;;;;;10.50;100.00;93382.22;2509756;23;20283;-87
2023/09/07 02:22:55;;;;;;;9.73;6.57;;;;;;;10.46;100.00;93378.88;2509418;23;20034;-84
2023/09/07 02:23:56;;;;;;;10.40;6.97;;;;;;;10.42;100.00;93378.16;2509026;23;20034;-86
2023/09/07 02:24:57;;;;;;;8.07;6.97;;;;;;;10.37;100.00;93383.97;2509131;23;20043;-83
2023/09/07 02:25:59;;;;;;;9.38;7.32;;;;;;;10.34;100.00;93385.53;2520733;23;20003;-86
2023/09/07 02:27:00;;;;;;;8.75;7.43;;;;;;;10.22;100.00;93383.41;2521666;23;20307;-85
2023/09/07 02:28:01;;;;;;;8.82;6.60;;;;;;;10.22;100.00;93392.19;2521033;23;20060;-85
2023/09/07 02:29:06;;;;;;;9.45;7.32;;;;;;;10.26;100.00;93389.50;2509104;23;20077;-86
2023/09/07 02:30:07;;;;;;;8.52;6.93;;;;;;;10.30;100.00;93388.25;2510498;23;20831;-86
2023/09/07 02:31:08;;;;;;;10.75;7.07;;;;;;;10.32;100.00;93385.22;2521136;23;20002;-85
2023/09/07 02:32:13;;;;;;;8.88;7.03;;;;;;;10.30;100.00;93382.91;2521649;23;20430;-85
2023/09/07 02:33:14;;;;;;;7.50;6.43;;;;;;;10.27;100.00;93383.75;2520985;23;20468;-85
2023/09/07 02:34:15;;;;;;;10.48;7.03;;;;;;;10.13;100.00;93385.84;2509257;23;20038;-85
2023/09/07 02:35:16;;;;;;;8.30;6.63;;;;;;;10.18;100.00;93383.47;2509245;23;20007;-85
2023/09/07 02:36:17;;;;;;;9.98;6.90;;;;;;;10.17;100.00;93387.31;2508883;23;20003;-84
2023/09/07 02:37:18;;;;;;;8.20;7.13;;;;;;;10.19;100.00;93390.34;2508995;23;20090;-85
2023/09/07 02:38:19;;;;;;;7.80;7.00;;;;;;;10.23;100.00;93388.38;2520854;23;20157;-83
2023/09/07 02:39:20;;;;;;;9.52;6.35;;;;;;;10.17;100.00;93387.31;2520893;23;20003;-86
2023/09/07 02:40:21;;;;;;;10.90;6.88;;;;;;;10.09;100.00;93391.25;2509124;23;20037;-84
2023/09/07 02:41:22;;;;;;;8.27;7.05;;;;;;;10.19;100.00;93382.31;2532886;23;20434;-84
2023/09/07 02:42:24;;;;;;;10.25;7.20;;;;;;;10.15;100.00;93392.31;2532949;23;20049;-85
2023/09/07 02:43:48;;;;;;;8.07;6.97;;;;;;;10.19;100.00;93386.91;2510071;23;20011;-85
2023/09/07 02:44:49;;;;;;;9.10;6.70;;;;;;;10.14;100.00;93385.47;2518124;23;20515;-88
2023/09/07 02:45:50;;;;;;;10.68;7.05;;;;;;;10.20;100.00;93389.16;2508814;23;19998;-84
2023/09/07 02:46:51;;;;;;;9.38;7.07;;;;;;;10.10;100.00;93387.44;2521283;23;20017;-85
2023/09/07 02:47:52;;;;;;;10.18;7.43;;;;;;;10.05;100.00;93385.19;2509092;23;20011;-85
2023/09/07 02:48:56;;;;;;;9.43;6.97;;;;;;;10.08;100.00;93387.81;2509262;23;20531;-86
2023/09/07 02:49:57;;;;;;;8.57;6.70;;;;;;;10.02;100.00;93391.38;2510215;23;20082;-85
2023/09/07 02:51:00;;;;;;;11.15;7.30;;;;;;;9.97;100.00;93387.25;2521102;23;20041;-86
2023/09/07 02:52:01;;;;;;;8.73;6.93;;;;;;;10.01;100.00;93382.59;2521097;23;20391;-85
2023/09/07 02:53:04;;;;;;;9.52;7.43;;;;;;;10.06;100.00;93384.81;2533224;23;20084;-84
2023/09/07 02:54:05;;;;;;;7.90;6.65;;;;;;;10.04;100.00;93386.38;2532931;23;20397;-84
2023/09/07 02:55:06;;;;;;;10.27;7.45;;;;;;;10.03;100.00;93376.84;2509397;23;20011;-85
2023/09/07 02:56:07;;;;;;;9.55;7.07;;;;;;;10.02;100.00;93372.69;2508908;23;20007;-86
2023/09/07 02:57:09;;;;;;;7.88;6.82;;;;;;;10.06;100.00;93374.13;2520888;23;20036;-84
2023/09/07 02:58:10;;;;;;;9.27;7.30;;;;;;;10.11;100.00;93374.84;2508888;23;20522;-85
2023/09/07 02:59:10;;;;;;;8.15;6.97;;;;;;;10.07;100.00;93375.63;2509293;23;20006;-85
2023/09/07 03:00:12;;;;;;;10.13;7.10;;;;;;;10.02;100.00;93365.41;2509121;23;20006;-85
2023/09/07 03:01:13;;;;;;;11.30;7.30;;;;;;;9.97;100.00;93371.22;2521199;23;20098;-86
2023/09/07 03:02:19;;;;;;;9.52;7.53;;;;;;;9.93;100.00;93369.75;2532680;23;20033;-86
2023/09/07 03:03:20;;;;;;;11.05;7.10;;;;;;;9.99;100.00;93371.56;2532833;23;20006;-86
2023/09/07 03:04:21;;;;;;;9.02;7.00;;;;;;;10.05;100.00;93367.28;2509090;23;20443;-86
2023/09/07 03:05:22;;;;;;;9.88;7.03;;;;;;;10.03;100.00;93372.25;2520668;23;20002;-86
2023/09/07 03:06:31;;;;;;;11.13;7.15;;;;;;;9.93;100.00;93364.44;2520649;23;20006;-85
2023/09/07 03:07:33;;;;;;;11.60;7.47;;;;;;;9.92;100.00;93370.91;2524156;23;20417;-85
2023/09/07 03:08:34;;;;;;;10.82;6.85;;;;;;;9.98;100.00;93375.41;2521065;23;20054;-85
2023/09/07 03:09:35;;;;;;;10.45;7.07;;;;;;;10.02;100.00;93375.34;2532922;23;20025;-85
2023/09/07 03:10:40;;;;;;;9.27;7.57;;;;;;;10.01;100.00;93369.25;2533003;23;20009;-86
2023/09/07 03:11:41;;;;;;;8.90;7.07;;;;;;;10.01;100.00;93365.84;2522282;23;20033;-85
2023/09/07 03:12:43;;;;;;;8.50;7.47;;;;;;;9.97;100.00;93370.47;2545093;23;20010;-85
2023/09/07 03:13:44;;;;;;;10.73;7.00;;;;;;;9.97;100.00;93376.56;2544915;23;20005;-85
2023/09/07 03:14:45;;;;;;;8.40;6.90;;;;;;;10.01;100.00;93376.50;2532705;23;20002;-85
2023/09/07 03:15:45;;;;;;;7.57;6.78;;;;;;;9.95;100.00;93368.19;2520701;23;20003;-85
2023/09/07 03:16:50;;;;;;;8.07;7.22;;;;;;;9.89;100.00;93369.81;2520685;23;20477;-85
2023/09/07 03:17:51;;;;;;;9.85;7.22;;;;;;;9.87;100.00;93377.47;2533718;23;20002;-86
2023/09/07 03:18:51;;;;;;;9.90;7.28;;;;;;;9.82;100.00;93376.00;2509775;23;20003;-85
2023/09/07 03:19:52;;;;;;;8.50;6.65;;;;;;;9.80;100.00;93370.31;2509919;23;20345;-85
2023/09/07 03:20:55;;;;;;;10.43;7.57;;;;;;;9.88;100.00;93368.31;2521792;23;20010;-85
2023/09/07 03:21:56;;;;;;;10.80;7.22;;;;;;;9.93;100.00;93361.75;2533666;23;20056;-87
2023/09/07 03:22:57;;;;;;;9.85;7.05;;;;;;;9.86;100.00;93375.19;2533656;23;20002;-82
2023/09/07 03:23:58;;;;;;;11.57;7.43;;;;;;;9.84;100.00;93368.34;2533617;23;20006;-84
2023/09/07 03:25:00;;;;;;;13.95;7.47;;;;;;;9.87;100.00;93369.44;2521519;23;20002;-83
2023/09/07 03:26:00;;;;;;;10.43;7.50;;;;;;;9.89;100.00;93366.38;2533393;23;20010;-84
2023/09/07 03:27:03;;;;;;;10.50;7.43;;;;;;;9.87;100.00;93366.78;2533319;23;20417;-85
2023/09/07 03:28:04;;;;;;;9.80;7.63;;;;;;;9.91;100.00;93366.72;2521752;23;20010;-86
2023/09/07 03:29:05;;;;;;;9.85;7.70;;;;;;;9.89;100.00;93369.81;2509733;23;20003;-85
2023/09/07 03:30:07;;;;;;;10.23;8.20;;;;;;;9.86;100.00;93375.97;2509880;23;20082;-86
2023/09/07 03:31:08;;;;;;;9.18;8.13;;;;;;;9.82;100.00;93372.59;2510146;23;20006;-84
2023/09/07 03:32:09;;;;;;;8.60;7.40;;;;;;;9.83;100.00;93369.53;2521647;23;20018;-85
2023/09/07 03:33:10;;;;;;;12.52;8.00;;;;;;;9.83;100.00;93366.84;2521853;23;20786;-83
2023/09/07 03:34:11;;;;;;;9.60;7.43;;;;;;;9.73;100.00;93377.66;2509816;23;20002;-84
2023/09/07 03:35:12;;;;;;;9.48;7.45;;;;;;;9.76;100.00;93372.28;2509839;23;20030;-86
2023/09/07 03:36:16;;;;;;;9.02;7.18;;;;;;;9.75;100.00;93375.38;2510515;23;20435;-84
2023/09/07 03:37:17;;;;;;;9.35;7.68;;;;;;;9.76;100.00;93366.19;2522242;23;20009;-86
2023/09/07 03:38:18;;;;;;;10.13;7.07;;;;;;;9.72;100.00;93371.59;2521386;23;20030;-83
2023/09/07 03:39:22;;;;;;;10.60;8.23;;;;;;;9.72;100.00;93370.84;2509880;23;20010;-84
2023/09/07 03:40:23;;;;;;;10.52;7.43;;;;;;;9.66;100.00;93375.09;2521959;23;20002;-83
2023/09/07 03:41:30;;;;;;;8.85;7.50;;;;;;;9.67;100.00;93377.38;2521497;23;20006;-83
2023/09/07 03:42:31;;;;;;;11.82;7.13;;;;;;;9.73;100.00;93372.34;2511500;23;20102;-84
2023/09/07 03:43:31;;;;;;;10.07;7.43;;;;;;;9.78;100.00;93374.53;2509716;23;20011;-84
2023/09/07 03:44:32;;;;;;;11.45;7.45;;;;;;;9.75;100.00;93373.44;2509565;23;20445;-84
2023/09/07 03:45:33;;;;;;;9.82;7.65;;;;;;;9.77;100.00;93379.13;2521368;23;20418;-85
2023/09/07 03:46:34;;;;;;;8.60;7.30;;;;;;;9.73;100.00;93383.00;2545729;23;20068;-85
2023/09/07 03:47:37;;;;;;;10.70;7.60;;;;;;;9.72;100.00;93370.84;2533494;23;20002;-85
2023/09/07 03:48:38;;;;;;;8.02;7.05;;;;;;;9.68;100.00;93384.22;2510153;23;20006;-85
2023/09/07 03:49:39;;;;;;;11.05;7.63;;;;;;;9.66;100.00;93383.09;2521388;23;20377;-86
2023/09/07 03:50:40;;;;;;;9.32;7.43;;;;;;;9.79;100.00;93373.41;2521272;23;20017;-85
2023/09/07 03:51:48;;;;;;;9.70;7.15;;;;;;;9.69;100.00;93376.97;2534981;23;20025;-85
2023/09/07 03:52:49;;;;;;;11.88;7.45;;;;;;;9.65;100.00;93379.69;2521602;23;20006;-84
2023/09/07 03:53:50;;;;;;;7.90;6.82;;;;;;;9.67;100.00;93384.63;2509480;23;20003;-84
2023/09/07 03:54:51;;;;;;;11.32;7.28;;;;;;;9.71;100.00;93378.09;2521426;23;20002;-85
2023/09/07 03:55:52;;;;;;;13.65;6.88;;;;;;;9.68;100.00;93378.88;2533437;23;20005;-85
2023/09/07 03:56:58;;;;;;;9.70;7.28;;;;;;;9.72;100.00;93389.50;2522335;23;20527;-86
2023/09/07 03:57:59;;;;;;;9.85;7.22;;;;;;;9.70;100.00;93383.81;2521448;23;20010;-85
2023/09/07 03:59:00;;;;;;;9.38;7.03;;;;;;;9.57;100.00;93379.03;2533656;23;20013;-85
2023/09/07 04:00:07;;;;;;;12.80;7.55;;;;;;;9.64;100.00;93370.16;2533364;23;20033;-85
2023/09/07 04:01:08;;;;;;;9.30;7.22;;;;;;;9.69;100.00;93384.97;2522426;23;20041;-85
2023/09/07 04:02:09;;;;;;;8.80;7.05;;;;;;;9.66;100.00;93386.56;2509764;23;20054;-84
2023/09/07 04:03:10;;;;;;;11.00;6.80;;;;;;;9.64;100.00;93386.19;2509689;23;20007;-84
2023/09/07 04:04:11;;;;;;;8.38;7.20;;;;;;;9.63;100.00;93389.25;2509660;23;20380;-84
2023/09/07 04:05:12;;;;;;;9.50;7.65;;;;;;;9.58;100.00;93377.88;2509465;23;20006;-84
2023/09/07 04:06:13;;;;;;;10.18;7.28;;;;;;;9.56;100.00;93385.50;2509433;23;20094;-83
2023/09/07 04:07:14;;;;;;;7.82;7.03;;;;;;;9.59;100.00;93383.97;2509586;23;20304;-84
2023/09/07 04:08:15;;;;;;;9.80;7.05;;;;;;;9.57;100.00;93384.38;2509745;23;20296;-84
2023/09/07 04:09:16;;;;;;;8.85;7.15;;;;;;;9.56;100.00;93382.84;2521524;23;20426;-86
2023/09/07 04:10:17;;;;;;;10.57;7.20;;;;;;;9.53;100.00;93386.34;2521408;23;20078;-86
2023/09/07 04:11:18;;;;;;;9.10;7.53;;;;;;;9.45;100.00;93387.59;2533652;23;20345;-87
2023/09/07 04:12:19;;;;;;;9.55;7.00;;;;;;;9.51;100.00;93382.56;2533726;23;20002;-85
2023/09/07 04:13:28;;;;;;;9.00;7.55;;;;;;;9.55;100.00;93381.34;2545640;23;20033;-85
2023/09/07 04:14:30;;;;;;;10.18;7.00;;;;;;;9.53;100.00;93383.66;2533589;23;20053;-84
2023/09/07 04:15:31;;;;;;;13.38;7.60;;;;;;;9.54;100.00;93382.50;2510181;23;20018;-86
2023/09/07 04:16:32;;;;;;;9.27;7.45;;;;;;;9.53;100.00;93390.94;2520998;23;20415;-85
2023/09/07 04:17:39;;;;;;;8.80;6.85;;;;;;;9.54;100.00;93379.84;2521587;23;20033;-86
2023/09/07 04:18:42;;;;;;;9.90;7.68;;;;;;;9.55;100.00;93383.25;2524020;23;20013;-85
2023/09/07 04:19:43;;;;;;;8.23;6.97;;;;;;;9.50;100.00;93379.13;2533783;23;20005;-84
2023/09/07 04:20:44;;;;;;;10.50;7.13;;;;;;;9.50;100.00;93381.78;2521159;23;20038;-84
2023/09/07 04:21:45;;;;;;;8.15;6.72;;;;;;;9.57;100.00;93381.72;2521282;23;20006;-84
2023/09/07 04:22:46;;;;;;;11.43;7.03;;;;;;;9.57;100.00;93379.03;2533673;23;20025;-86
2023/09/07 04:23:47;;;;;;;9.68;6.65;;;;;;;9.47;100.00;93382.59;2533703;23;20073;-84
2023/09/07 04:24:49;;;;;;;10.82;7.20;;;;;;;9.51;100.00;93379.88;2521196;23;20025;-87
2023/09/07 04:25:50;;;;;;;12.02;7.25;;;;;;;9.52;100.00;93376.03;2521080;23;20113;-87
2023/09/07 04:26:51;;;;;;;10.15;7.20;;;;;;;9.52;100.00;93381.38;2509501;23;20076;-87
2023/09/07 04:27:52;;;;;;;10.10;6.97;;;;;;;9.51;100.00;93377.97;2521455;23;20010;-85
2023/09/07 04:28:53;;;;;;;8.38;7.10;;;;;;;9.42;100.00;93379.63;2521210;23;20090;-85
2023/09/07 04:29:54;;;;;;;10.20;6.70;;;;;;;9.36;100.00;93374.00;2521549;23;20006;-86
2023/09/07 04:30:55;;;;;;;10.85;7.18;;;;;;;9.44;100.00;93382.63;2521464;23;20006;-86
2023/09/07 04:31:56;;;;;;;9.82;7.10;;;;;;;9.39;100.00;93375.09;2521250;23;20006;-86
2023/09/07 04:32:57;;;;;;;11.02;7.22;;;;;;;9.29;100.00;93372.16;2533678;23;20009;-85
2023/09/07 04:33:58;;;;;;;8.73;7.20;;;;;;;9.37;100.00;93370.16;2533586;23;20006;-86
2023/09/07 04:35:01;;;;;;;10.85;7.68;;;;;;;9.36;100.00;93382.00;2509628;23;20007;-86
2023/09/07 04:36:14;;;;;;;9.88;7.22;;;;;;;9.34;100.00;93376.28;2522444;23;20013;-85
2023/09/07 04:37:17;;;;;;;9.15;7.22;;;;;;;9.33;100.00;93372.13;2535850;23;20017;-86
2023/09/07 04:38:18;;;;;;;9.68;6.85;;;;;;;9.28;100.00;93381.31;2522092;23;20283;-85
2023/09/07 04:39:19;;;;;;;12.10;7.30;;;;;;;9.34;100.00;93373.63;2521303;23;20031;-87
2023/09/07 04:40:21;;;;;;;8.90;7.03;;;;;;;9.31;100.00;93374.44;2533402;23;20013;-86
2023/09/07 04:41:22;;;;;;;10.52;7.57;;;;;;;9.35;100.00;93380.50;2521612;23;20107;-86
2023/09/07 04:42:23;;;;;;;10.32;7.38;;;;;;;9.38;100.00;93374.31;2520874;23;20014;-85
2023/09/07 04:43:24;;;;;;;8.60;6.95;;;;;;;9.34;100.00;93376.28;2521211;23;20162;-84
2023/09/07 04:44:28;;;;;;;11.13;6.90;;;;;;;9.36;100.00;93371.31;2533604;23;20036;-86
2023/09/07 04:45:29;;;;;;;12.63;7.70;;;;;;;9.34;100.00;93377.03;2545254;23;20481;-86
2023/09/07 04:46:32;;;;;;;9.50;7.80;;;;;;;9.31;100.00;93379.78;2521588;23;20337;-87
2023/09/07 04:47:34;;;;;;;10.70;7.43;;;;;;;9.35;100.00;93372.47;2509800;23;20003;-88